sensor_id;sensor_type;location;lat;lon;timestamp;P1;durP1;ratioP1;P2;durP2;ratioP2
69854;SDS011;57146;48.140;16.304;2023-02-15T00:01:06;27.88;;;9.32;;
69854;SDS011;57146;48.140;16.304;2023-02-15T00:03:34;27.23;;;9.27;;
69854;SDS011;57146;48.140;16.304;2023-02-15T00:06:02;24.67;;;9.00;;
69854;SDS011;57146;48.140;16.304;2023-02-15T00:08:30;27.60;;;9.20;;
69854;SDS011;57146;48.140;16.304;2023-02-15T00:11:08;26.17;;;8.95;;
69854;SDS011;57146;48.140;16.304;2023-02-15T00:13:37;28.25;;;9.20;;
69854;SDS011;57146;48.140;16.304;2023-02-15T00:16:08;23.88;;;8.90;;
69854;SDS011;57146;48.140;16.304;2023-02-15T00:18:37;26.10;;;9.40;;
69854;SDS011;57146;48.140;16.304;2023-02-15T00:21:07;26.13;;;9.10;;
69854;SDS011;57146;48.140;16.304;2023-02-15T00:23:36;25.77;;;8.68;;
69854;SDS011;57146;48.140;16.304;2023-02-15T00:26:07;27.35;;;9.70;;
69854;SDS011;57146;48.140;16.304;2023-02-15T00:28:37;25.77;;;9.45;;
69854;SDS011;57146;48.140;16.304;2023-02-15T00:31:07;25.42;;;8.77;;
69854;SDS011;57146;48.140;16.304;2023-02-15T00:33:38;23.80;;;8.57;;
69854;SDS011;57146;48.140;16.304;2023-02-15T00:36:06;26.92;;;9.35;;
69854;SDS011;57146;48.140;16.304;2023-02-15T00:38:35;29.42;;;9.35;;
69854;SDS011;57146;48.140;16.304;2023-02-15T00:41:04;25.38;;;9.18;;
69854;SDS011;57146;48.140;16.304;2023-02-15T00:43:33;28.27;;;9.90;;
69854;SDS011;57146;48.140;16.304;2023-02-15T00:46:01;27.33;;;9.73;;
69854;SDS011;57146;48.140;16.304;2023-02-15T00:48:30;25.90;;;9.73;;
69854;SDS011;57146;48.140;16.304;2023-02-15T00:50:58;30.17;;;10.48;;
69854;SDS011;57146;48.140;16.304;2023-02-15T00:53:26;28.02;;;10.02;;
69854;SDS011;57146;48.140;16.304;2023-02-15T00:55:54;27.73;;;9.90;;
69854;SDS011;57146;48.140;16.304;2023-02-15T00:58:21;26.60;;;9.47;;
69854;SDS011;57146;48.140;16.304;2023-02-15T01:00:48;28.80;;;10.18;;
69854;SDS011;57146;48.140;16.304;2023-02-15T01:03:16;31.60;;;10.10;;
69854;SDS011;57146;48.140;16.304;2023-02-15T01:05:44;27.00;;;9.35;;
69854;SDS011;57146;48.140;16.304;2023-02-15T01:08:11;29.38;;;9.35;;
69854;SDS011;57146;48.140;16.304;2023-02-15T01:10:38;27.17;;;9.63;;
69854;SDS011;57146;48.140;16.304;2023-02-15T01:13:05;27.92;;;8.98;;
69854;SDS011;57146;48.140;16.304;2023-02-15T01:15:34;27.92;;;9.63;;
69854;SDS011;57146;48.140;16.304;2023-02-15T01:18:03;26.40;;;9.68;;
69854;SDS011;57146;48.140;16.304;2023-02-15T01:20:33;27.98;;;9.63;;
69854;SDS011;57146;48.140;16.304;2023-02-15T01:23:02;28.10;;;9.87;;
69854;SDS011;57146;48.140;16.304;2023-02-15T01:25:29;27.85;;;9.20;;
69854;SDS011;57146;48.140;16.304;2023-02-15T01:27:56;24.85;;;9.98;;
69854;SDS011;57146;48.140;16.304;2023-02-15T01:30:23;28.15;;;9.88;;
69854;SDS011;57146;48.140;16.304;2023-02-15T01:32:50;27.52;;;9.95;;
69854;SDS011;57146;48.140;16.304;2023-02-15T01:35:17;28.73;;;10.03;;
69854;SDS011;57146;48.140;16.304;2023-02-15T01:37:44;28.52;;;10.20;;
69854;SDS011;57146;48.140;16.304;2023-02-15T01:40:14;25.35;;;8.75;;
69854;SDS011;57146;48.140;16.304;2023-02-15T01:42:44;27.60;;;9.52;;
69854;SDS011;57146;48.140;16.304;2023-02-15T01:45:18;28.58;;;10.23;;
69854;SDS011;57146;48.140;16.304;2023-02-15T01:50:32;27.27;;;10.15;;
69854;SDS011;57146;48.140;16.304;2023-02-15T01:53:05;31.58;;;10.35;;
69854;SDS011;57146;48.140;16.304;2023-02-15T01:55:38;27.98;;;9.27;;
69854;SDS011;57146;48.140;16.304;2023-02-15T01:58:09;27.25;;;9.82;;
69854;SDS011;57146;48.140;16.304;2023-02-15T02:00:36;27.80;;;9.60;;
69854;SDS011;57146;48.140;16.304;2023-02-15T02:03:03;27.95;;;9.65;;
69854;SDS011;57146;48.140;16.304;2023-02-15T02:05:31;27.25;;;10.10;;
69854;SDS011;57146;48.140;16.304;2023-02-15T02:07:59;24.88;;;8.85;;
69854;SDS011;57146;48.140;16.304;2023-02-15T02:10:30;28.00;;;9.65;;
69854;SDS011;57146;48.140;16.304;2023-02-15T02:13:02;26.43;;;9.30;;
69854;SDS011;57146;48.140;16.304;2023-02-15T02:15:49;31.05;;;10.15;;
69854;SDS011;57146;48.140;16.304;2023-02-15T02:24:44;27.50;;;9.38;;
69854;SDS011;57146;48.140;16.304;2023-02-15T02:44:23;28.98;;;10.00;;
69854;SDS011;57146;48.140;16.304;2023-02-15T02:49:44;27.27;;;9.38;;
69854;SDS011;57146;48.140;16.304;2023-02-15T02:55:06;27.80;;;9.63;;
69854;SDS011;57146;48.140;16.304;2023-02-15T02:57:52;29.83;;;10.10;;
69854;SDS011;57146;48.140;16.304;2023-02-15T03:00:20;28.50;;;9.48;;
69854;SDS011;57146;48.140;16.304;2023-02-15T03:02:51;30.30;;;10.25;;
69854;SDS011;57146;48.140;16.304;2023-02-15T03:05:26;29.05;;;9.93;;
69854;SDS011;57146;48.140;16.304;2023-02-15T03:07:56;28.93;;;9.97;;
69854;SDS011;57146;48.140;16.304;2023-02-15T03:10:27;27.15;;;9.75;;
69854;SDS011;57146;48.140;16.304;2023-02-15T03:12:55;29.48;;;10.45;;
69854;SDS011;57146;48.140;16.304;2023-02-15T03:15:24;24.52;;;8.90;;
69854;SDS011;57146;48.140;16.304;2023-02-15T03:17:57;30.80;;;9.57;;
69854;SDS011;57146;48.140;16.304;2023-02-15T03:20:29;29.33;;;9.90;;
69854;SDS011;57146;48.140;16.304;2023-02-15T03:23:07;30.58;;;10.10;;
69854;SDS011;57146;48.140;16.304;2023-02-15T03:25:42;29.67;;;9.85;;
69854;SDS011;57146;48.140;16.304;2023-02-15T03:28:22;28.45;;;9.70;;
69854;SDS011;57146;48.140;16.304;2023-02-15T03:30:57;25.15;;;9.23;;
69854;SDS011;57146;48.140;16.304;2023-02-15T03:33:28;26.23;;;9.30;;
69854;SDS011;57146;48.140;16.304;2023-02-15T03:35:59;30.52;;;9.48;;
69854;SDS011;57146;48.140;16.304;2023-02-15T03:38:55;28.77;;;9.55;;
69854;SDS011;57146;48.140;16.304;2023-02-15T03:41:38;28.33;;;9.75;;
69854;SDS011;57146;48.140;16.304;2023-02-15T03:44:14;28.35;;;10.13;;
69854;SDS011;57146;48.140;16.304;2023-02-15T03:46:48;28.47;;;9.63;;
69854;SDS011;57146;48.140;16.304;2023-02-15T03:49:28;27.55;;;9.50;;
69854;SDS011;57146;48.140;16.304;2023-02-15T03:52:01;25.52;;;9.32;;
69854;SDS011;57146;48.140;16.304;2023-02-15T03:54:31;26.27;;;9.20;;
69854;SDS011;57146;48.140;16.304;2023-02-15T03:57:01;26.92;;;9.40;;
69854;SDS011;57146;48.140;16.304;2023-02-15T03:59:29;26.60;;;9.33;;
69854;SDS011;57146;48.140;16.304;2023-02-15T04:04:36;30.25;;;9.70;;
69854;SDS011;57146;48.140;16.304;2023-02-15T04:07:06;29.05;;;9.27;;
69854;SDS011;57146;48.140;16.304;2023-02-15T04:09:34;26.48;;;9.40;;
69854;SDS011;57146;48.140;16.304;2023-02-15T04:12:02;28.50;;;9.50;;
69854;SDS011;57146;48.140;16.304;2023-02-15T04:14:29;25.90;;;9.00;;
69854;SDS011;57146;48.140;16.304;2023-02-15T04:16:56;26.63;;;8.95;;
69854;SDS011;57146;48.140;16.304;2023-02-15T04:19:23;27.90;;;9.57;;
69854;SDS011;57146;48.140;16.304;2023-02-15T04:21:50;25.65;;;8.95;;
69854;SDS011;57146;48.140;16.304;2023-02-15T04:24:16;29.53;;;9.33;;
69854;SDS011;57146;48.140;16.304;2023-02-15T04:26:44;27.27;;;9.07;;
69854;SDS011;57146;48.140;16.304;2023-02-15T04:29:11;26.25;;;9.05;;
69854;SDS011;57146;48.140;16.304;2023-02-15T04:31:38;27.52;;;9.38;;
69854;SDS011;57146;48.140;16.304;2023-02-15T04:34:05;24.50;;;8.35;;
69854;SDS011;57146;48.140;16.304;2023-02-15T04:36:32;29.50;;;9.03;;
69854;SDS011;57146;48.140;16.304;2023-02-15T04:38:59;25.52;;;8.93;;
69854;SDS011;57146;48.140;16.304;2023-02-15T04:41:25;27.92;;;9.25;;
69854;SDS011;57146;48.140;16.304;2023-02-15T04:43:52;30.05;;;9.70;;
69854;SDS011;57146;48.140;16.304;2023-02-15T04:46:19;28.42;;;9.15;;
69854;SDS011;57146;48.140;16.304;2023-02-15T04:48:46;26.10;;;8.63;;
69854;SDS011;57146;48.140;16.304;2023-02-15T04:51:13;27.48;;;8.55;;
69854;SDS011;57146;48.140;16.304;2023-02-15T04:53:40;27.65;;;9.30;;
69854;SDS011;57146;48.140;16.304;2023-02-15T04:56:07;29.13;;;9.63;;
69854;SDS011;57146;48.140;16.304;2023-02-15T04:58:34;29.48;;;9.60;;
69854;SDS011;57146;48.140;16.304;2023-02-15T05:01:01;27.47;;;8.87;;
69854;SDS011;57146;48.140;16.304;2023-02-15T05:03:28;28.83;;;9.90;;
69854;SDS011;57146;48.140;16.304;2023-02-15T05:05:55;27.88;;;9.55;;
69854;SDS011;57146;48.140;16.304;2023-02-15T05:08:22;26.30;;;8.85;;
69854;SDS011;57146;48.140;16.304;2023-02-15T05:10:49;29.25;;;9.10;;
69854;SDS011;57146;48.140;16.304;2023-02-15T05:13:16;26.93;;;9.17;;
69854;SDS011;57146;48.140;16.304;2023-02-15T05:15:46;28.33;;;9.23;;
69854;SDS011;57146;48.140;16.304;2023-02-15T05:18:19;30.75;;;10.02;;
69854;SDS011;57146;48.140;16.304;2023-02-15T05:20:47;29.17;;;9.32;;
69854;SDS011;57146;48.140;16.304;2023-02-15T05:23:15;27.77;;;9.88;;
69854;SDS011;57146;48.140;16.304;2023-02-15T05:25:46;29.90;;;10.00;;
69854;SDS011;57146;48.140;16.304;2023-02-15T05:28:13;30.00;;;9.20;;
69854;SDS011;57146;48.140;16.304;2023-02-15T05:30:40;27.85;;;9.45;;
69854;SDS011;57146;48.140;16.304;2023-02-15T05:33:08;28.52;;;9.65;;
69854;SDS011;57146;48.140;16.304;2023-02-15T05:35:35;27.08;;;9.50;;
69854;SDS011;57146;48.140;16.304;2023-02-15T05:38:02;26.40;;;9.30;;
69854;SDS011;57146;48.140;16.304;2023-02-15T05:40:29;28.70;;;9.45;;
69854;SDS011;57146;48.140;16.304;2023-02-15T05:42:56;32.83;;;11.32;;
69854;SDS011;57146;48.140;16.304;2023-02-15T05:45:23;32.25;;;10.85;;
69854;SDS011;57146;48.140;16.304;2023-02-15T05:47:50;30.33;;;9.77;;
69854;SDS011;57146;48.140;16.304;2023-02-15T05:50:17;27.17;;;9.33;;
69854;SDS011;57146;48.140;16.304;2023-02-15T05:52:45;35.25;;;10.88;;
69854;SDS011;57146;48.140;16.304;2023-02-15T05:55:12;29.50;;;9.32;;
69854;SDS011;57146;48.140;16.304;2023-02-15T05:57:39;32.55;;;9.60;;
69854;SDS011;57146;48.140;16.304;2023-02-15T06:00:06;30.00;;;10.07;;
69854;SDS011;57146;48.140;16.304;2023-02-15T06:02:39;32.67;;;10.00;;
69854;SDS011;57146;48.140;16.304;2023-02-15T06:05:07;28.75;;;9.48;;
69854;SDS011;57146;48.140;16.304;2023-02-15T06:07:33;29.17;;;9.48;;
69854;SDS011;57146;48.140;16.304;2023-02-15T06:10:00;31.92;;;10.30;;
69854;SDS011;57146;48.140;16.304;2023-02-15T06:12:28;31.33;;;10.23;;
69854;SDS011;57146;48.140;16.304;2023-02-15T06:14:55;28.53;;;9.83;;
69854;SDS011;57146;48.140;16.304;2023-02-15T06:17:22;28.15;;;9.73;;
69854;SDS011;57146;48.140;16.304;2023-02-15T06:19:49;27.50;;;9.82;;
69854;SDS011;57146;48.140;16.304;2023-02-15T06:22:16;28.65;;;9.45;;
69854;SDS011;57146;48.140;16.304;2023-02-15T06:24:43;27.35;;;9.20;;
69854;SDS011;57146;48.140;16.304;2023-02-15T06:27:09;27.90;;;8.80;;
69854;SDS011;57146;48.140;16.304;2023-02-15T06:29:37;26.48;;;9.18;;
69854;SDS011;57146;48.140;16.304;2023-02-15T06:32:04;26.80;;;8.93;;
69854;SDS011;57146;48.140;16.304;2023-02-15T06:34:31;31.45;;;9.98;;
69854;SDS011;57146;48.140;16.304;2023-02-15T06:36:58;30.40;;;9.70;;
69854;SDS011;57146;48.140;16.304;2023-02-15T06:39:25;29.57;;;9.60;;
69854;SDS011;57146;48.140;16.304;2023-02-15T06:41:52;28.40;;;9.68;;
69854;SDS011;57146;48.140;16.304;2023-02-15T06:44:19;30.58;;;9.63;;
69854;SDS011;57146;48.140;16.304;2023-02-15T06:46:46;30.88;;;9.93;;
69854;SDS011;57146;48.140;16.304;2023-02-15T06:49:13;26.40;;;9.15;;
69854;SDS011;57146;48.140;16.304;2023-02-15T06:51:40;27.70;;;9.47;;
69854;SDS011;57146;48.140;16.304;2023-02-15T06:54:07;29.05;;;8.90;;
69854;SDS011;57146;48.140;16.304;2023-02-15T06:56:33;29.13;;;8.50;;
69854;SDS011;57146;48.140;16.304;2023-02-15T06:59:01;28.52;;;9.23;;
69854;SDS011;57146;48.140;16.304;2023-02-15T07:01:28;31.13;;;10.02;;
69854;SDS011;57146;48.140;16.304;2023-02-15T07:03:54;28.60;;;9.63;;
69854;SDS011;57146;48.140;16.304;2023-02-15T07:06:21;27.50;;;9.13;;
69854;SDS011;57146;48.140;16.304;2023-02-15T07:08:48;29.08;;;9.38;;
69854;SDS011;57146;48.140;16.304;2023-02-15T07:11:15;29.90;;;9.80;;
69854;SDS011;57146;48.140;16.304;2023-02-15T07:13:42;27.92;;;9.35;;
69854;SDS011;57146;48.140;16.304;2023-02-15T07:16:09;28.87;;;9.07;;
69854;SDS011;57146;48.140;16.304;2023-02-15T07:18:36;28.90;;;9.90;;
69854;SDS011;57146;48.140;16.304;2023-02-15T07:21:03;29.83;;;9.38;;
69854;SDS011;57146;48.140;16.304;2023-02-15T07:23:30;32.10;;;9.65;;
69854;SDS011;57146;48.140;16.304;2023-02-15T07:25:58;26.35;;;8.60;;
69854;SDS011;57146;48.140;16.304;2023-02-15T07:28:26;25.77;;;9.30;;
69854;SDS011;57146;48.140;16.304;2023-02-15T07:30:53;28.38;;;9.18;;
69854;SDS011;57146;48.140;16.304;2023-02-15T07:33:20;26.88;;;9.15;;
69854;SDS011;57146;48.140;16.304;2023-02-15T07:35:48;28.42;;;8.93;;
69854;SDS011;57146;48.140;16.304;2023-02-15T07:38:23;30.63;;;9.55;;
69854;SDS011;57146;48.140;16.304;2023-02-15T07:40:57;30.73;;;9.83;;
69854;SDS011;57146;48.140;16.304;2023-02-15T07:43:24;27.20;;;9.13;;
69854;SDS011;57146;48.140;16.304;2023-02-15T07:45:51;34.15;;;9.90;;
69854;SDS011;57146;48.140;16.304;2023-02-15T07:48:18;28.40;;;9.10;;
69854;SDS011;57146;48.140;16.304;2023-02-15T07:50:45;30.48;;;9.65;;
69854;SDS011;57146;48.140;16.304;2023-02-15T07:53:12;28.00;;;9.27;;
69854;SDS011;57146;48.140;16.304;2023-02-15T07:55:39;31.05;;;9.35;;
69854;SDS011;57146;48.140;16.304;2023-02-15T07:58:06;30.13;;;9.85;;
69854;SDS011;57146;48.140;16.304;2023-02-15T08:00:33;26.55;;;8.90;;
69854;SDS011;57146;48.140;16.304;2023-02-15T08:02:59;28.23;;;9.30;;
69854;SDS011;57146;48.140;16.304;2023-02-15T08:05:28;28.60;;;9.60;;
69854;SDS011;57146;48.140;16.304;2023-02-15T08:07:55;27.90;;;8.98;;
69854;SDS011;57146;48.140;16.304;2023-02-15T08:10:22;28.42;;;9.50;;
69854;SDS011;57146;48.140;16.304;2023-02-15T08:12:49;26.40;;;8.75;;
69854;SDS011;57146;48.140;16.304;2023-02-15T08:15:16;29.40;;;9.60;;
69854;SDS011;57146;48.140;16.304;2023-02-15T08:17:43;29.03;;;9.97;;
69854;SDS011;57146;48.140;16.304;2023-02-15T08:20:10;29.67;;;9.68;;
69854;SDS011;57146;48.140;16.304;2023-02-15T08:22:37;32.28;;;9.43;;
69854;SDS011;57146;48.140;16.304;2023-02-15T08:25:04;29.50;;;9.20;;
69854;SDS011;57146;48.140;16.304;2023-02-15T08:27:31;32.17;;;10.50;;
69854;SDS011;57146;48.140;16.304;2023-02-15T08:29:58;28.83;;;9.07;;
69854;SDS011;57146;48.140;16.304;2023-02-15T08:32:24;28.95;;;8.65;;
69854;SDS011;57146;48.140;16.304;2023-02-15T08:34:51;27.83;;;9.35;;
69854;SDS011;57146;48.140;16.304;2023-02-15T08:37:18;30.00;;;9.48;;
69854;SDS011;57146;48.140;16.304;2023-02-15T08:39:45;28.05;;;9.00;;
69854;SDS011;57146;48.140;16.304;2023-02-15T08:42:12;30.87;;;9.20;;
69854;SDS011;57146;48.140;16.304;2023-02-15T08:44:39;30.27;;;9.38;;
69854;SDS011;57146;48.140;16.304;2023-02-15T08:47:05;30.33;;;9.60;;
69854;SDS011;57146;48.140;16.304;2023-02-15T08:49:32;28.13;;;9.27;;
69854;SDS011;57146;48.140;16.304;2023-02-15T08:51:59;29.33;;;9.68;;
69854;SDS011;57146;48.140;16.304;2023-02-15T08:54:26;28.63;;;9.17;;
69854;SDS011;57146;48.140;16.304;2023-02-15T08:56:53;29.48;;;9.95;;
69854;SDS011;57146;48.140;16.304;2023-02-15T08:59:21;29.05;;;9.25;;
69854;SDS011;57146;48.140;16.304;2023-02-15T09:01:49;26.88;;;9.20;;
69854;SDS011;57146;48.140;16.304;2023-02-15T09:04:17;29.80;;;9.13;;
69854;SDS011;57146;48.140;16.304;2023-02-15T09:06:45;30.00;;;9.60;;
69854;SDS011;57146;48.140;16.304;2023-02-15T09:09:15;27.50;;;9.27;;
69854;SDS011;57146;48.140;16.304;2023-02-15T09:11:44;28.38;;;9.82;;
69854;SDS011;57146;48.140;16.304;2023-02-15T09:14:14;31.17;;;9.95;;
69854;SDS011;57146;48.140;16.304;2023-02-15T09:16:45;29.52;;;9.52;;
69854;SDS011;57146;48.140;16.304;2023-02-15T09:19:13;29.67;;;9.30;;
69854;SDS011;57146;48.140;16.304;2023-02-15T09:21:40;30.20;;;9.38;;
69854;SDS011;57146;48.140;16.304;2023-02-15T09:24:08;27.35;;;9.18;;
69854;SDS011;57146;48.140;16.304;2023-02-15T09:26:40;28.77;;;9.10;;
69854;SDS011;57146;48.140;16.304;2023-02-15T09:29:09;32.65;;;11.20;;
69854;SDS011;57146;48.140;16.304;2023-02-15T09:31:47;33.93;;;9.70;;
69854;SDS011;57146;48.140;16.304;2023-02-15T09:34:17;27.85;;;9.57;;
69854;SDS011;57146;48.140;16.304;2023-02-15T09:36:46;30.40;;;9.48;;
69854;SDS011;57146;48.140;16.304;2023-02-15T09:39:18;28.80;;;9.73;;
69854;SDS011;57146;48.140;16.304;2023-02-15T09:42:03;30.58;;;8.95;;
69854;SDS011;57146;48.140;16.304;2023-02-15T09:50:27;30.90;;;10.05;;
69854;SDS011;57146;48.140;16.304;2023-02-15T09:53:21;27.13;;;9.40;;
69854;SDS011;57146;48.140;16.304;2023-02-15T09:59:11;27.37;;;9.27;;
69854;SDS011;57146;48.140;16.304;2023-02-15T10:01:52;27.60;;;9.85;;
69854;SDS011;57146;48.140;16.304;2023-02-15T10:15:02;28.15;;;8.90;;
69854;SDS011;57146;48.140;16.304;2023-02-15T10:17:53;28.83;;;9.32;;
69854;SDS011;57146;48.140;16.304;2023-02-15T10:28:43;30.45;;;9.85;;
69854;SDS011;57146;48.140;16.304;2023-02-15T10:31:35;30.63;;;9.60;;
69854;SDS011;57146;48.140;16.304;2023-02-15T10:34:11;30.35;;;9.25;;
69854;SDS011;57146;48.140;16.304;2023-02-15T10:39:23;28.93;;;9.23;;
69854;SDS011;57146;48.140;16.304;2023-02-15T10:49:58;29.42;;;9.45;;
69854;SDS011;57146;48.140;16.304;2023-02-15T10:52:43;31.03;;;9.37;;
69854;SDS011;57146;48.140;16.304;2023-02-15T10:55:27;31.85;;;10.18;;
69854;SDS011;57146;48.140;16.304;2023-02-15T10:59:03;27.48;;;9.00;;
69854;SDS011;57146;48.140;16.304;2023-02-15T11:01:25;26.67;;;8.80;;
69854;SDS011;57146;48.140;16.304;2023-02-15T11:04:30;29.58;;;9.32;;
69854;SDS011;57146;48.140;16.304;2023-02-15T11:07:12;30.20;;;9.10;;
69854;SDS011;57146;48.140;16.304;2023-02-15T11:13:12;28.23;;;9.23;;
69854;SDS011;57146;48.140;16.304;2023-02-15T11:15:44;31.58;;;9.65;;
69854;SDS011;57146;48.140;16.304;2023-02-15T11:20:55;28.37;;;9.30;;
69854;SDS011;57146;48.140;16.304;2023-02-15T11:23:28;27.85;;;8.73;;
69854;SDS011;57146;48.140;16.304;2023-02-15T11:25:59;30.25;;;9.75;;
69854;SDS011;57146;48.140;16.304;2023-02-15T11:28:37;27.13;;;8.93;;
69854;SDS011;57146;48.140;16.304;2023-02-15T11:31:17;27.98;;;9.13;;
69854;SDS011;57146;48.140;16.304;2023-02-15T11:33:49;30.17;;;9.43;;
69854;SDS011;57146;48.140;16.304;2023-02-15T11:36:21;31.65;;;9.73;;
69854;SDS011;57146;48.140;16.304;2023-02-15T11:38:59;31.40;;;9.60;;
69854;SDS011;57146;48.140;16.304;2023-02-15T11:41:31;28.85;;;9.10;;
69854;SDS011;57146;48.140;16.304;2023-02-15T11:44:10;30.20;;;9.45;;
69854;SDS011;57146;48.140;16.304;2023-02-15T11:46:38;31.43;;;10.07;;
69854;SDS011;57146;48.140;16.304;2023-02-15T11:49:12;30.10;;;9.50;;
69854;SDS011;57146;48.140;16.304;2023-02-15T11:51:49;29.10;;;9.13;;
69854;SDS011;57146;48.140;16.304;2023-02-15T11:54:19;31.13;;;9.68;;
69854;SDS011;57146;48.140;16.304;2023-02-15T11:56:51;35.20;;;10.15;;
69854;SDS011;57146;48.140;16.304;2023-02-15T11:59:25;29.67;;;8.90;;
69854;SDS011;57146;48.140;16.304;2023-02-15T12:01:59;27.55;;;8.77;;
69854;SDS011;57146;48.140;16.304;2023-02-15T12:04:30;31.55;;;10.10;;
69854;SDS011;57146;48.140;16.304;2023-02-15T12:07:11;29.08;;;9.45;;
69854;SDS011;57146;48.140;16.304;2023-02-15T12:10:04;29.65;;;10.00;;
69854;SDS011;57146;48.140;16.304;2023-02-15T12:12:37;30.40;;;9.77;;
69854;SDS011;57146;48.140;16.304;2023-02-15T12:15:06;30.42;;;9.45;;
69854;SDS011;57146;48.140;16.304;2023-02-15T12:17:41;32.47;;;9.68;;
69854;SDS011;57146;48.140;16.304;2023-02-15T12:22:51;30.55;;;10.18;;
69854;SDS011;57146;48.140;16.304;2023-02-15T12:28:18;28.77;;;9.95;;
69854;SDS011;57146;48.140;16.304;2023-02-15T12:30:56;34.35;;;10.90;;
69854;SDS011;57146;48.140;16.304;2023-02-15T12:33:28;32.20;;;9.93;;
69854;SDS011;57146;48.140;16.304;2023-02-15T12:36:01;31.45;;;10.20;;
69854;SDS011;57146;48.140;16.304;2023-02-15T12:38:35;30.57;;;10.03;;
69854;SDS011;57146;48.140;16.304;2023-02-15T12:44:18;30.45;;;9.98;;
69854;SDS011;57146;48.140;16.304;2023-02-15T12:49:29;31.75;;;10.32;;
69854;SDS011;57146;48.140;16.304;2023-02-15T12:54:44;30.17;;;9.45;;
69854;SDS011;57146;48.140;16.304;2023-02-15T12:59:58;31.85;;;10.40;;
69854;SDS011;57146;48.140;16.304;2023-02-15T13:02:52;31.02;;;10.25;;
69854;SDS011;57146;48.140;16.304;2023-02-15T13:05:30;31.43;;;10.33;;
69854;SDS011;57146;48.140;16.304;2023-02-15T13:08:08;29.45;;;9.93;;
69854;SDS011;57146;48.140;16.304;2023-02-15T13:10:58;26.48;;;9.48;;
69854;SDS011;57146;48.140;16.304;2023-02-15T13:13:33;29.67;;;9.80;;
69854;SDS011;57146;48.140;16.304;2023-02-15T13:16:03;30.65;;;9.82;;
69854;SDS011;57146;48.140;16.304;2023-02-15T13:18:34;30.20;;;10.47;;
69854;SDS011;57146;48.140;16.304;2023-02-15T13:21:23;30.02;;;9.77;;
69854;SDS011;57146;48.140;16.304;2023-02-15T13:23:58;25.77;;;9.50;;
69854;SDS011;57146;48.140;16.304;2023-02-15T13:26:31;30.15;;;9.57;;
69854;SDS011;57146;48.140;16.304;2023-02-15T13:29:05;29.77;;;9.68;;
69854;SDS011;57146;48.140;16.304;2023-02-15T13:31:34;28.83;;;9.70;;
69854;SDS011;57146;48.140;16.304;2023-02-15T13:34:03;29.35;;;9.52;;
69854;SDS011;57146;48.140;16.304;2023-02-15T13:42:18;30.58;;;10.38;;
69854;SDS011;57146;48.140;16.304;2023-02-15T13:56:05;27.27;;;9.00;;
69854;SDS011;57146;48.140;16.304;2023-02-15T14:02:13;25.55;;;8.65;;
69854;SDS011;57146;48.140;16.304;2023-02-15T14:04:48;28.58;;;10.20;;
69854;SDS011;57146;48.140;16.304;2023-02-15T14:18:46;28.42;;;8.95;;
69854;SDS011;57146;48.140;16.304;2023-02-15T14:21:42;31.55;;;10.18;;
69854;SDS011;57146;48.140;16.304;2023-02-15T14:28:07;31.03;;;10.47;;
69854;SDS011;57146;48.140;16.304;2023-02-15T14:30:20;29.13;;;10.15;;
69854;SDS011;57146;48.140;16.304;2023-02-15T14:32:53;29.17;;;9.40;;
69854;SDS011;57146;48.140;16.304;2023-02-15T14:35:34;31.80;;;10.73;;
69854;SDS011;57146;48.140;16.304;2023-02-15T14:47:03;33.85;;;11.65;;
69854;SDS011;57146;48.140;16.304;2023-02-15T14:49:39;34.78;;;11.25;;
69854;SDS011;57146;48.140;16.304;2023-02-15T14:52:07;36.90;;;12.00;;
69854;SDS011;57146;48.140;16.304;2023-02-15T15:04:39;28.42;;;9.68;;
69854;SDS011;57146;48.140;16.304;2023-02-15T15:07:41;30.47;;;10.50;;
69854;SDS011;57146;48.140;16.304;2023-02-15T15:12:46;30.70;;;10.05;;
69854;SDS011;57146;48.140;16.304;2023-02-15T15:16:05;28.40;;;9.88;;
69854;SDS011;57146;48.140;16.304;2023-02-15T15:21:42;29.57;;;10.17;;
69854;SDS011;57146;48.140;16.304;2023-02-15T15:43:30;34.00;;;11.02;;
69854;SDS011;57146;48.140;16.304;2023-02-15T15:48:54;32.77;;;10.43;;
69854;SDS011;57146;48.140;16.304;2023-02-15T15:54:01;34.22;;;10.95;;
69854;SDS011;57146;48.140;16.304;2023-02-15T15:56:35;31.90;;;10.77;;
69854;SDS011;57146;48.140;16.304;2023-02-15T15:59:07;33.47;;;11.27;;
69854;SDS011;57146;48.140;16.304;2023-02-15T16:01:44;34.07;;;10.77;;
69854;SDS011;57146;48.140;16.304;2023-02-15T16:04:13;35.72;;;11.75;;
69854;SDS011;57146;48.140;16.304;2023-02-15T16:06:48;32.30;;;11.07;;
69854;SDS011;57146;48.140;16.304;2023-02-15T16:09:23;34.28;;;11.38;;
69854;SDS011;57146;48.140;16.304;2023-02-15T16:11:54;36.08;;;11.25;;
69854;SDS011;57146;48.140;16.304;2023-02-15T16:14:29;34.77;;;11.20;;
69854;SDS011;57146;48.140;16.304;2023-02-15T16:17:00;33.92;;;11.38;;
69854;SDS011;57146;48.140;16.304;2023-02-15T16:19:35;38.80;;;11.43;;
69854;SDS011;57146;48.140;16.304;2023-02-15T16:22:39;32.03;;;10.48;;
69854;SDS011;57146;48.140;16.304;2023-02-15T16:27:46;33.77;;;11.27;;
69854;SDS011;57146;48.140;16.304;2023-02-15T16:32:52;35.75;;;11.77;;
69854;SDS011;57146;48.140;16.304;2023-02-15T16:35:22;37.22;;;12.07;;
69854;SDS011;57146;48.140;16.304;2023-02-15T16:37:49;40.05;;;11.98;;
69854;SDS011;57146;48.140;16.304;2023-02-15T16:43:10;35.92;;;11.10;;
69854;SDS011;57146;48.140;16.304;2023-02-15T16:45:42;36.70;;;12.00;;
69854;SDS011;57146;48.140;16.304;2023-02-15T16:48:18;34.22;;;11.20;;
69854;SDS011;57146;48.140;16.304;2023-02-15T16:50:53;35.17;;;11.77;;
69854;SDS011;57146;48.140;16.304;2023-02-15T16:53:26;33.50;;;11.20;;
69854;SDS011;57146;48.140;16.304;2023-02-15T16:55:59;38.88;;;11.75;;
69854;SDS011;57146;48.140;16.304;2023-02-15T16:58:36;37.35;;;12.15;;
69854;SDS011;57146;48.140;16.304;2023-02-15T17:01:05;32.40;;;11.02;;
69854;SDS011;57146;48.140;16.304;2023-02-15T17:03:36;36.60;;;11.98;;
69854;SDS011;57146;48.140;16.304;2023-02-15T17:06:05;38.53;;;12.07;;
69854;SDS011;57146;48.140;16.304;2023-02-15T17:08:47;41.08;;;12.90;;
69854;SDS011;57146;48.140;16.304;2023-02-15T17:11:15;38.25;;;12.15;;
69854;SDS011;57146;48.140;16.304;2023-02-15T17:19:22;38.27;;;12.90;;
69854;SDS011;57146;48.140;16.304;2023-02-15T17:22:00;38.08;;;13.00;;
69854;SDS011;57146;48.140;16.304;2023-02-15T17:27:10;40.15;;;14.38;;
69854;SDS011;57146;48.140;16.304;2023-02-15T17:29:56;39.67;;;13.68;;
69854;SDS011;57146;48.140;16.304;2023-02-15T17:32:27;44.73;;;14.60;;
69854;SDS011;57146;48.140;16.304;2023-02-15T17:42:57;38.63;;;13.32;;
69854;SDS011;57146;48.140;16.304;2023-02-15T17:45:30;39.47;;;13.40;;
69854;SDS011;57146;48.140;16.304;2023-02-15T17:48:01;40.17;;;13.30;;
69854;SDS011;57146;48.140;16.304;2023-02-15T17:50:32;42.17;;;14.15;;
69854;SDS011;57146;48.140;16.304;2023-02-15T17:53:01;41.85;;;14.30;;
69854;SDS011;57146;48.140;16.304;2023-02-15T17:55:30;43.15;;;13.85;;
69854;SDS011;57146;48.140;16.304;2023-02-15T17:57:58;39.33;;;13.43;;
69854;SDS011;57146;48.140;16.304;2023-02-15T18:00:27;43.10;;;14.18;;
69854;SDS011;57146;48.140;16.304;2023-02-15T18:03:00;41.15;;;13.15;;
69854;SDS011;57146;48.140;16.304;2023-02-15T18:05:51;43.72;;;13.93;;
69854;SDS011;57146;48.140;16.304;2023-02-15T18:08:20;41.80;;;14.13;;